VOZ638 YSCB-YMHB
Flight info
| Callsign | VOZ638 |
|---|---|
| Flight time | 1h 19m |
| Altitude | 39000 |
| Route | TANTA DCT MAKRL J163 VEKLO DCT IPLET |
| Aircraft | B38M/M-SDE1FGHILORVWXY/HB1 |
Departure
| Time | 2026-05-05 03:42 |
|---|---|
| Airport | Canberra Airport (YSCB) |
Arrival
| Time | 2026-05-05 05:01 |
|---|---|
| Airport | Hobart International Airport (YMHB) |
| Time | Latitude | Longitude | Altitude | Speed | Heading |
|---|---|---|---|---|---|
| 2026-05-05 03:10 | -35.30797 | 149.19153 | 1882 ft | 0 kts | 270° |
| 2026-05-05 03:33 | -35.30797 | 149.19172 | 1882 ft | 2 kts | 270° |
| 2026-05-05 03:33 | -35.30797 | 149.19193 | 1882 ft | 2 kts | 270° |
| 2026-05-05 03:34 | -35.30797 | 149.19213 | 1882 ft | 2 kts | 271° |
| 2026-05-05 03:34 | -35.30797 | 149.19233 | 1880 ft | 2 kts | 236° |
| 2026-05-05 03:34 | -35.30783 | 149.19239 | 1875 ft | 1 kts | 181° |
| 2026-05-05 03:34 | -35.30779 | 149.19240 | 1877 ft | 0 kts | 180° |
| 2026-05-05 03:37 | -35.30782 | 149.19239 | 1876 ft | 3 kts | 180° |
| 2026-05-05 03:37 | -35.30859 | 149.19239 | 1881 ft | 18 kts | 180° |
| 2026-05-05 03:38 | -35.30989 | 149.19240 | 1882 ft | 20 kts | 179° |
| 2026-05-05 03:38 | -35.31134 | 149.19240 | 1882 ft | 22 kts | 180° |
| 2026-05-05 03:38 | -35.31279 | 149.19240 | 1882 ft | 20 kts | 180° |
| 2026-05-05 03:38 | -35.31428 | 149.19241 | 1882 ft | 22 kts | 179° |
| 2026-05-05 03:39 | -35.31579 | 149.19242 | 1882 ft | 23 kts | 180° |
| 2026-05-05 03:39 | -35.31734 | 149.19241 | 1880 ft | 21 kts | 180° |
| 2026-05-05 03:39 | -35.31879 | 149.19241 | 1880 ft | 21 kts | 180° |
| 2026-05-05 03:39 | -35.31993 | 149.19292 | 1880 ft | 5 kts | 129° |
| 2026-05-05 03:40 | -35.31998 | 149.19304 | 1879 ft | 1 kts | 111° |
| 2026-05-05 03:40 | -35.32005 | 149.19325 | 1882 ft | 4 kts | 111° |
| 2026-05-05 03:40 | -35.32010 | 149.19364 | 1881 ft | 6 kts | 92° |
| 2026-05-05 03:40 | -35.32011 | 149.19428 | 1882 ft | 8 kts | 84° |
| 2026-05-05 03:41 | -35.31998 | 149.19444 | 1882 ft | 1 kts | 14° |
| 2026-05-05 03:41 | -35.31964 | 149.19445 | 1882 ft | 11 kts | 0° |
| 2026-05-05 03:41 | -35.31648 | 149.19442 | 1879 ft | 83 kts | 360° |
| 2026-05-05 03:41 | -35.30846 | 149.19442 | 1882 ft | 144 kts | 1° |
| 2026-05-05 03:42 | -35.29790 | 149.19469 | 2357 ft | 159 kts | 356° |
| 2026-05-05 03:42 | -35.28647 | 149.19470 | 3050 ft | 168 kts | 358° |
| 2026-05-05 03:42 | -35.27442 | 149.19566 | 3669 ft | 184 kts | 1° |
| 2026-05-05 03:42 | -35.26141 | 149.19677 | 3907 ft | 196 kts | 1° |
| 2026-05-05 03:43 | -35.24721 | 149.19859 | 4244 ft | 213 kts | 2° |
| 2026-05-05 03:43 | -35.23174 | 149.20046 | 4560 ft | 234 kts | 3° |
| 2026-05-05 03:43 | -35.21493 | 149.20278 | 4684 ft | 252 kts | 4° |
| 2026-05-05 03:43 | -35.19705 | 149.20509 | 4740 ft | 263 kts | 2° |
| 2026-05-05 03:44 | -35.17863 | 149.20735 | 4861 ft | 268 kts | 4° |
| 2026-05-05 03:44 | -35.15984 | 149.20959 | 5101 ft | 273 kts | 2° |
| 2026-05-05 03:44 | -35.14074 | 149.21179 | 6018 ft | 277 kts | 360° |
| 2026-05-05 03:44 | -35.12184 | 149.20750 | 6884 ft | 281 kts | 329° |
| 2026-05-05 03:45 | -35.10772 | 149.19202 | 7972 ft | 272 kts | 301° |
| 2026-05-05 03:45 | -35.09932 | 149.17162 | 8948 ft | 272 kts | 284° |
| 2026-05-05 03:45 | -35.09744 | 149.14876 | 9967 ft | 271 kts | 261° |
| 2026-05-05 03:45 | -35.10329 | 149.12668 | 10700 ft | 283 kts | 239° |
| 2026-05-05 03:46 | -35.11550 | 149.10684 | 11247 ft | 300 kts | 234° |
| 2026-05-05 03:46 | -35.12799 | 149.08585 | 11968 ft | 310 kts | 234° |
| 2026-05-05 03:46 | -35.14077 | 149.06452 | 12914 ft | 313 kts | 234° |
| 2026-05-05 03:46 | -35.15378 | 149.04296 | 13860 ft | 316 kts | 234° |
| 2026-05-05 03:47 | -35.16697 | 149.02124 | 14694 ft | 320 kts | 234° |
| 2026-05-05 03:47 | -35.18036 | 148.99923 | 15518 ft | 324 kts | 234° |
| 2026-05-05 03:47 | -35.19392 | 148.97699 | 16330 ft | 328 kts | 235° |
| 2026-05-05 03:47 | -35.20802 | 148.95482 | 17119 ft | 334 kts | 228° |
| 2026-05-05 03:48 | -35.22689 | 148.93795 | 17910 ft | 343 kts | 209° |
| 2026-05-05 03:48 | -35.24968 | 148.92954 | 18622 ft | 354 kts | 193° |
| 2026-05-05 03:48 | -35.27415 | 148.92504 | 19265 ft | 358 kts | 193° |
| 2026-05-05 03:48 | -35.29896 | 148.92059 | 19920 ft | 362 kts | 193° |
| 2026-05-05 03:49 | -35.32416 | 148.91624 | 20572 ft | 365 kts | 193° |
| 2026-05-05 03:49 | -35.34954 | 148.91196 | 21208 ft | 370 kts | 193° |
| 2026-05-05 03:49 | -35.37521 | 148.90768 | 21825 ft | 374 kts | 193° |
| 2026-05-05 03:49 | -35.40107 | 148.90339 | 22439 ft | 378 kts | 193° |
| 2026-05-05 03:50 | -35.42685 | 148.89911 | 23044 ft | 381 kts | 193° |
| 2026-05-05 03:50 | -35.45329 | 148.89474 | 23618 ft | 385 kts | 193° |
| 2026-05-05 03:50 | -35.48001 | 148.89031 | 24095 ft | 389 kts | 193° |
| 2026-05-05 03:50 | -35.50699 | 148.88583 | 24605 ft | 392 kts | 193° |
| 2026-05-05 03:51 | -35.53418 | 148.88131 | 25105 ft | 395 kts | 193° |
| 2026-05-05 03:51 | -35.56155 | 148.87676 | 25589 ft | 398 kts | 193° |
| 2026-05-05 03:51 | -35.58921 | 148.87217 | 26046 ft | 402 kts | 193° |
| 2026-05-05 03:51 | -35.61710 | 148.86753 | 26521 ft | 405 kts | 193° |
| 2026-05-05 03:52 | -35.64508 | 148.86287 | 26971 ft | 409 kts | 193° |
| 2026-05-05 03:52 | -35.67267 | 148.85550 | 27378 ft | 403 kts | 207° |
| 2026-05-05 03:52 | -35.69647 | 148.83913 | 27776 ft | 395 kts | 224° |
| 2026-05-05 03:52 | -35.71559 | 148.81514 | 28143 ft | 391 kts | 236° |
| 2026-05-05 03:53 | -35.73249 | 148.78872 | 28628 ft | 392 kts | 237° |
| 2026-05-05 03:53 | -35.74889 | 148.76175 | 29043 ft | 395 kts | 238° |
| 2026-05-05 03:53 | -35.76509 | 148.73426 | 29461 ft | 398 kts | 239° |
| 2026-05-05 03:53 | -35.78125 | 148.70640 | 29845 ft | 401 kts | 239° |
| 2026-05-05 03:54 | -35.79740 | 148.67825 | 30269 ft | 403 kts | 239° |
| 2026-05-05 03:54 | -35.81361 | 148.64983 | 30604 ft | 406 kts | 239° |
| 2026-05-05 03:54 | -35.82986 | 148.62126 | 30939 ft | 409 kts | 239° |
| 2026-05-05 03:54 | -35.84600 | 148.59287 | 31266 ft | 411 kts | 239° |
| 2026-05-05 03:55 | -35.86420 | 148.56548 | 31659 ft | 420 kts | 227° |
| 2026-05-05 03:55 | -35.88839 | 148.54474 | 32090 ft | 432 kts | 212° |
| 2026-05-05 03:55 | -35.91723 | 148.53260 | 32400 ft | 447 kts | 196° |
| 2026-05-05 03:55 | -35.94872 | 148.52957 | 32761 ft | 456 kts | 187° |
| 2026-05-05 03:56 | -35.98053 | 148.52811 | 33036 ft | 459 kts | 188° |
| 2026-05-05 03:56 | -36.01258 | 148.52660 | 33321 ft | 462 kts | 188° |
| 2026-05-05 03:56 | -36.04476 | 148.52524 | 33635 ft | 464 kts | 188° |
| 2026-05-05 03:56 | -36.07708 | 148.52394 | 33971 ft | 466 kts | 188° |
| 2026-05-05 03:57 | -36.10914 | 148.52266 | 34321 ft | 466 kts | 188° |
| 2026-05-05 03:57 | -36.14159 | 148.52137 | 34667 ft | 466 kts | 188° |
| 2026-05-05 03:57 | -36.17406 | 148.52007 | 34983 ft | 467 kts | 188° |
| 2026-05-05 03:57 | -36.20651 | 148.51878 | 35309 ft | 467 kts | 188° |
| 2026-05-05 03:58 | -36.23902 | 148.51747 | 35622 ft | 467 kts | 188° |
| 2026-05-05 03:58 | -36.27151 | 148.51617 | 35931 ft | 467 kts | 188° |
| 2026-05-05 03:58 | -36.30399 | 148.51488 | 36226 ft | 467 kts | 188° |
| 2026-05-05 03:58 | -36.33652 | 148.51357 | 36503 ft | 468 kts | 188° |
| 2026-05-05 03:59 | -36.36917 | 148.51227 | 36760 ft | 468 kts | 188° |
| 2026-05-05 03:59 | -36.40134 | 148.51097 | 37084 ft | 467 kts | 188° |
| 2026-05-05 03:59 | -36.43381 | 148.50967 | 37343 ft | 468 kts | 188° |
| 2026-05-05 03:59 | -36.46640 | 148.50836 | 37616 ft | 468 kts | 188° |
| 2026-05-05 04:00 | -36.49894 | 148.50705 | 37886 ft | 468 kts | 188° |
| 2026-05-05 04:00 | -36.53151 | 148.50574 | 38137 ft | 468 kts | 188° |
| 2026-05-05 04:00 | -36.56409 | 148.50443 | 38376 ft | 469 kts | 188° |
| 2026-05-05 04:00 | -36.59677 | 148.50311 | 38621 ft | 469 kts | 188° |
| 2026-05-05 04:01 | -36.62946 | 148.50179 | 38850 ft | 469 kts | 188° |
| 2026-05-05 04:01 | -36.66169 | 148.50049 | 39005 ft | 469 kts | 188° |
| 2026-05-05 04:01 | -36.69436 | 148.49917 | 39123 ft | 470 kts | 188° |
| 2026-05-05 04:01 | -36.72720 | 148.49784 | 39112 ft | 474 kts | 188° |
| 2026-05-05 04:02 | -36.79334 | 148.49516 | 39114 ft | 475 kts | 188° |
| 2026-05-05 04:02 | -36.85931 | 148.49248 | 39107 ft | 475 kts | 188° |
| 2026-05-05 04:03 | -36.92505 | 148.48981 | 39103 ft | 474 kts | 188° |
| 2026-05-05 04:03 | -36.99103 | 148.48712 | 39098 ft | 474 kts | 188° |
| 2026-05-05 04:04 | -37.05693 | 148.48443 | 39114 ft | 474 kts | 188° |
| 2026-05-05 04:04 | -37.12262 | 148.48175 | 39120 ft | 474 kts | 188° |
| 2026-05-05 04:05 | -37.18855 | 148.47904 | 39109 ft | 473 kts | 188° |
| 2026-05-05 04:05 | -37.25452 | 148.47637 | 39116 ft | 473 kts | 188° |
| 2026-05-05 04:06 | -37.32040 | 148.47364 | 39125 ft | 474 kts | 187° |
| 2026-05-05 04:06 | -37.38594 | 148.47093 | 39115 ft | 474 kts | 187° |
| 2026-05-05 04:07 | -37.45181 | 148.46822 | 39115 ft | 474 kts | 187° |
| 2026-05-05 04:07 | -37.51781 | 148.46550 | 39123 ft | 474 kts | 187° |
| 2026-05-05 04:08 | -37.58366 | 148.46277 | 39116 ft | 473 kts | 187° |
| 2026-05-05 04:08 | -37.64954 | 148.46004 | 39119 ft | 474 kts | 187° |
| 2026-05-05 04:09 | -37.71500 | 148.45733 | 39134 ft | 473 kts | 187° |
| 2026-05-05 04:09 | -37.78070 | 148.45459 | 39120 ft | 471 kts | 187° |
| 2026-05-05 04:10 | -37.84623 | 148.45186 | 39123 ft | 472 kts | 187° |
| 2026-05-05 04:10 | -37.91183 | 148.44913 | 39134 ft | 471 kts | 187° |
| 2026-05-05 04:11 | -37.97740 | 148.44638 | 39116 ft | 470 kts | 187° |
| 2026-05-05 04:11 | -38.04235 | 148.44366 | 39118 ft | 470 kts | 187° |
| 2026-05-05 04:12 | -38.10771 | 148.44091 | 39137 ft | 470 kts | 187° |
| 2026-05-05 04:12 | -38.17282 | 148.43818 | 39116 ft | 466 kts | 187° |
| 2026-05-05 04:13 | -38.23777 | 148.43544 | 39111 ft | 467 kts | 187° |
| 2026-05-05 04:13 | -38.30217 | 148.43273 | 39108 ft | 466 kts | 187° |
| 2026-05-05 04:14 | -38.36722 | 148.42998 | 39105 ft | 467 kts | 187° |
| 2026-05-05 04:14 | -38.43207 | 148.42723 | 39104 ft | 466 kts | 187° |
| 2026-05-05 04:15 | -38.49697 | 148.42393 | 39113 ft | 463 kts | 193° |
| 2026-05-05 04:15 | -38.55950 | 148.40886 | 39106 ft | 458 kts | 197° |
| 2026-05-05 04:16 | -38.62170 | 148.39335 | 39098 ft | 458 kts | 197° |
| 2026-05-05 04:16 | -38.67377 | 148.38026 | 39096 ft | 458 kts | 197° |
| 2026-05-05 04:17 | -38.74650 | 148.36193 | 39094 ft | 457 kts | 197° |
| 2026-05-05 04:17 | -38.79884 | 148.34872 | 39092 ft | 457 kts | 197° |
| 2026-05-05 04:18 | -38.86092 | 148.33302 | 39106 ft | 457 kts | 197° |
| 2026-05-05 04:18 | -38.92355 | 148.31716 | 39091 ft | 458 kts | 197° |
| 2026-05-05 04:19 | -38.98619 | 148.30126 | 39084 ft | 458 kts | 197° |
| 2026-05-05 04:19 | -39.04838 | 148.28545 | 39095 ft | 458 kts | 196° |
| 2026-05-05 04:20 | -39.11109 | 148.26948 | 39080 ft | 459 kts | 196° |
| 2026-05-05 04:20 | -39.17378 | 148.25348 | 39079 ft | 459 kts | 196° |
| 2026-05-05 04:21 | -39.23648 | 148.23746 | 39091 ft | 459 kts | 196° |
| 2026-05-05 04:21 | -39.29911 | 148.22142 | 39072 ft | 459 kts | 196° |
| 2026-05-05 04:22 | -39.36131 | 148.20546 | 39075 ft | 459 kts | 196° |
| 2026-05-05 04:22 | -39.42399 | 148.18935 | 39080 ft | 458 kts | 196° |
| 2026-05-05 04:23 | -39.48640 | 148.17328 | 39063 ft | 456 kts | 196° |
| 2026-05-05 04:23 | -39.54871 | 148.15721 | 39059 ft | 457 kts | 196° |
| 2026-05-05 04:24 | -39.61110 | 148.14108 | 39068 ft | 456 kts | 196° |
| 2026-05-05 04:25 | -39.70423 | 148.11696 | 39057 ft | 456 kts | 196° |
| 2026-05-05 04:25 | -39.76654 | 148.10078 | 39070 ft | 456 kts | 196° |
| 2026-05-05 04:26 | -39.82866 | 148.08462 | 39049 ft | 454 kts | 196° |
| 2026-05-05 04:26 | -39.89078 | 148.06844 | 39049 ft | 455 kts | 196° |
| 2026-05-05 04:27 | -39.95245 | 148.05234 | 39059 ft | 454 kts | 196° |
| 2026-05-05 04:27 | -40.01443 | 148.03614 | 39042 ft | 453 kts | 196° |
| 2026-05-05 04:28 | -40.07630 | 148.01993 | 39047 ft | 454 kts | 196° |
| 2026-05-05 04:28 | -40.13916 | 148.00865 | 39055 ft | 457 kts | 192° |
| 2026-05-05 04:29 | -40.20217 | 147.99811 | 39038 ft | 456 kts | 192° |
| 2026-05-05 04:29 | -40.26486 | 147.98735 | 39043 ft | 456 kts | 192° |
| 2026-05-05 04:30 | -40.32778 | 147.97650 | 39044 ft | 457 kts | 192° |
| 2026-05-05 04:30 | -40.39091 | 147.96560 | 39036 ft | 457 kts | 192° |
| 2026-05-05 04:31 | -40.45395 | 147.95469 | 39030 ft | 457 kts | 192° |
| 2026-05-05 04:31 | -40.51695 | 147.94377 | 39019 ft | 456 kts | 192° |
| 2026-05-05 04:32 | -40.57944 | 147.93292 | 39018 ft | 456 kts | 192° |
| 2026-05-05 04:32 | -40.64255 | 147.92194 | 39020 ft | 457 kts | 192° |
| 2026-05-05 04:33 | -40.70570 | 147.91093 | 39010 ft | 457 kts | 192° |
| 2026-05-05 04:33 | -40.76867 | 147.89993 | 39010 ft | 457 kts | 192° |
| 2026-05-05 04:34 | -40.83165 | 147.88891 | 38132 ft | 458 kts | 192° |
| 2026-05-05 04:34 | -40.86281 | 147.88346 | 37543 ft | 453 kts | 192° |
| 2026-05-05 04:34 | -40.89385 | 147.87802 | 37051 ft | 447 kts | 192° |
| 2026-05-05 04:34 | -40.92463 | 147.87262 | 36311 ft | 446 kts | 191° |
| 2026-05-05 04:35 | -40.95515 | 147.86725 | 35807 ft | 440 kts | 191° |
| 2026-05-05 04:35 | -40.98553 | 147.86191 | 35114 ft | 438 kts | 191° |
| 2026-05-05 04:35 | -41.01547 | 147.85663 | 34617 ft | 432 kts | 191° |
| 2026-05-05 04:35 | -41.04529 | 147.85137 | 33984 ft | 429 kts | 190° |
| 2026-05-05 04:36 | -41.07430 | 147.84625 | 33355 ft | 424 kts | 190° |
| 2026-05-05 04:36 | -41.10350 | 147.84109 | 32536 ft | 424 kts | 190° |
| 2026-05-05 04:36 | -41.13270 | 147.83593 | 31867 ft | 421 kts | 191° |
| 2026-05-05 04:36 | -41.16163 | 147.83082 | 31373 ft | 414 kts | 191° |
| 2026-05-05 04:37 | -41.18992 | 147.82581 | 30941 ft | 407 kts | 191° |
| 2026-05-05 04:37 | -41.21770 | 147.82088 | 30455 ft | 401 kts | 191° |
| 2026-05-05 04:37 | -41.24521 | 147.81600 | 29919 ft | 398 kts | 191° |
| 2026-05-05 04:37 | -41.27210 | 147.81124 | 29347 ft | 394 kts | 191° |
| 2026-05-05 04:38 | -41.29914 | 147.80643 | 28856 ft | 389 kts | 191° |
| 2026-05-05 04:38 | -41.32577 | 147.80170 | 28371 ft | 384 kts | 191° |
| 2026-05-05 04:38 | -41.35209 | 147.79702 | 27892 ft | 379 kts | 191° |
| 2026-05-05 04:38 | -41.37805 | 147.79240 | 27424 ft | 375 kts | 191° |
| 2026-05-05 04:39 | -41.40384 | 147.78780 | 26968 ft | 371 kts | 191° |
| 2026-05-05 04:39 | -41.42932 | 147.78325 | 26514 ft | 368 kts | 191° |
| 2026-05-05 04:39 | -41.45465 | 147.77873 | 26046 ft | 365 kts | 191° |
| 2026-05-05 04:39 | -41.47972 | 147.77426 | 25597 ft | 362 kts | 191° |
| 2026-05-05 04:40 | -41.50464 | 147.76980 | 25154 ft | 359 kts | 191° |
| 2026-05-05 04:40 | -41.52929 | 147.76539 | 24715 ft | 358 kts | 191° |
| 2026-05-05 04:40 | -41.55389 | 147.76098 | 24268 ft | 358 kts | 191° |
| 2026-05-05 04:40 | -41.57845 | 147.75658 | 23822 ft | 362 kts | 191° |
| 2026-05-05 04:41 | -41.60347 | 147.75209 | 23352 ft | 363 kts | 191° |
| 2026-05-05 04:41 | -41.62852 | 147.74760 | 22858 ft | 362 kts | 191° |
| 2026-05-05 04:41 | -41.65343 | 147.74312 | 22397 ft | 360 kts | 191° |
| 2026-05-05 04:41 | -41.67840 | 147.73864 | 21942 ft | 362 kts | 192° |
| 2026-05-05 04:42 | -41.70330 | 147.73416 | 21522 ft | 360 kts | 192° |
| 2026-05-05 04:42 | -41.72811 | 147.72969 | 21087 ft | 359 kts | 192° |
| 2026-05-05 04:42 | -41.75250 | 147.72530 | 20660 ft | 356 kts | 192° |
| 2026-05-05 04:42 | -41.77693 | 147.72089 | 20243 ft | 354 kts | 192° |
| 2026-05-05 04:43 | -41.80127 | 147.71650 | 19821 ft | 351 kts | 192° |
| 2026-05-05 04:43 | -41.82544 | 147.71214 | 19412 ft | 349 kts | 192° |
| 2026-05-05 04:43 | -41.84948 | 147.70779 | 19016 ft | 347 kts | 192° |
| 2026-05-05 04:43 | -41.87335 | 147.70348 | 18611 ft | 345 kts | 192° |
| 2026-05-05 04:44 | -41.89705 | 147.69919 | 18201 ft | 343 kts | 192° |
| 2026-05-05 04:44 | -41.92071 | 147.69491 | 17762 ft | 341 kts | 192° |
| 2026-05-05 04:44 | -41.94415 | 147.69066 | 17357 ft | 338 kts | 192° |
| 2026-05-05 04:44 | -41.96737 | 147.68645 | 16969 ft | 335 kts | 192° |
| 2026-05-05 04:45 | -41.99012 | 147.68232 | 16601 ft | 332 kts | 192° |
| 2026-05-05 04:45 | -42.01287 | 147.67819 | 16233 ft | 329 kts | 192° |
| 2026-05-05 04:45 | -42.03549 | 147.67408 | 15860 ft | 326 kts | 192° |
| 2026-05-05 04:45 | -42.05802 | 147.66998 | 15493 ft | 328 kts | 192° |
| 2026-05-05 04:46 | -42.08092 | 147.66690 | 15065 ft | 336 kts | 182° |
| 2026-05-05 04:46 | -42.10416 | 147.67309 | 14619 ft | 344 kts | 167° |
| 2026-05-05 04:46 | -42.12692 | 147.68268 | 14307 ft | 339 kts | 167° |
| 2026-05-05 04:46 | -42.14926 | 147.69223 | 13976 ft | 335 kts | 167° |
| 2026-05-05 04:47 | -42.17136 | 147.70182 | 13618 ft | 333 kts | 166° |
| 2026-05-05 04:47 | -42.19332 | 147.71147 | 13220 ft | 330 kts | 166° |
| 2026-05-05 04:47 | -42.21478 | 147.72095 | 12861 ft | 327 kts | 166° |
| 2026-05-05 04:47 | -42.23632 | 147.73049 | 12498 ft | 324 kts | 166° |
| 2026-05-05 04:48 | -42.25759 | 147.73996 | 12153 ft | 320 kts | 166° |
| 2026-05-05 04:48 | -42.27872 | 147.74933 | 11822 ft | 320 kts | 166° |
| 2026-05-05 04:48 | -42.30005 | 147.75880 | 11493 ft | 325 kts | 166° |
| 2026-05-05 04:48 | -42.32175 | 147.76846 | 11126 ft | 328 kts | 166° |
| 2026-05-05 04:49 | -42.34355 | 147.77725 | 10735 ft | 324 kts | 175° |
| 2026-05-05 04:49 | -42.36559 | 147.77704 | 10448 ft | 312 kts | 189° |
| 2026-05-05 04:49 | -42.38690 | 147.77463 | 10310 ft | 302 kts | 189° |
| 2026-05-05 04:49 | -42.40736 | 147.77222 | 10169 ft | 288 kts | 189° |
| 2026-05-05 04:50 | -42.42708 | 147.76979 | 10029 ft | 282 kts | 189° |
| 2026-05-05 04:50 | -42.44632 | 147.76735 | 9976 ft | 280 kts | 189° |
| 2026-05-05 04:50 | -42.46555 | 147.76487 | 9762 ft | 274 kts | 189° |
| 2026-05-05 04:50 | -42.48451 | 147.76241 | 9477 ft | 275 kts | 190° |
| 2026-05-05 04:51 | -42.50365 | 147.75990 | 9185 ft | 278 kts | 189° |
| 2026-05-05 04:51 | -42.52294 | 147.75740 | 8896 ft | 278 kts | 189° |
| 2026-05-05 04:51 | -42.54226 | 147.75490 | 8615 ft | 278 kts | 189° |
| 2026-05-05 04:51 | -42.56153 | 147.75239 | 8326 ft | 278 kts | 189° |
| 2026-05-05 04:52 | -42.58077 | 147.74987 | 8028 ft | 277 kts | 189° |
| 2026-05-05 04:52 | -42.59994 | 147.74737 | 7759 ft | 276 kts | 190° |
| 2026-05-05 04:52 | -42.61875 | 147.74491 | 7477 ft | 274 kts | 189° |
| 2026-05-05 04:52 | -42.63770 | 147.74243 | 7193 ft | 273 kts | 189° |
| 2026-05-05 04:53 | -42.65666 | 147.73996 | 6910 ft | 273 kts | 190° |
| 2026-05-05 04:53 | -42.67554 | 147.73748 | 6627 ft | 271 kts | 189° |
| 2026-05-05 04:53 | -42.69414 | 147.73505 | 6441 ft | 263 kts | 190° |
| 2026-05-05 04:53 | -42.71187 | 147.73272 | 6314 ft | 249 kts | 189° |
| 2026-05-05 04:54 | -42.72908 | 147.73047 | 6216 ft | 247 kts | 190° |
| 2026-05-05 04:54 | -42.74639 | 147.73142 | 6012 ft | 254 kts | 172° |
| 2026-05-05 04:54 | -42.76329 | 147.73733 | 5736 ft | 255 kts | 170° |
| 2026-05-05 04:54 | -42.78044 | 147.74344 | 5437 ft | 255 kts | 170° |
| 2026-05-05 04:55 | -42.79757 | 147.74958 | 5138 ft | 254 kts | 170° |
| 2026-05-05 04:55 | -42.81453 | 147.75570 | 4811 ft | 249 kts | 170° |
| 2026-05-05 04:55 | -42.83116 | 147.76166 | 4676 ft | 247 kts | 170° |
| 2026-05-05 04:55 | -42.84777 | 147.76755 | 4572 ft | 246 kts | 172° |
| 2026-05-05 04:56 | -42.86433 | 147.76753 | 4452 ft | 235 kts | 201° |
| 2026-05-05 04:56 | -42.87922 | 147.75897 | 4394 ft | 230 kts | 209° |
| 2026-05-05 04:56 | -42.89349 | 147.74998 | 4327 ft | 222 kts | 210° |
| 2026-05-05 04:56 | -42.90718 | 147.74114 | 4189 ft | 211 kts | 210° |
| 2026-05-05 04:57 | -42.91939 | 147.73200 | 4032 ft | 195 kts | 226° |
| 2026-05-05 04:57 | -42.92598 | 147.71688 | 3718 ft | 184 kts | 258° |
| 2026-05-05 04:57 | -42.92695 | 147.69971 | 3436 ft | 180 kts | 267° |
| 2026-05-05 04:57 | -42.92733 | 147.68280 | 3141 ft | 177 kts | 268° |
| 2026-05-05 04:58 | -42.92760 | 147.66610 | 2847 ft | 174 kts | 269° |
| 2026-05-05 04:58 | -42.92765 | 147.64962 | 2563 ft | 174 kts | 274° |
| 2026-05-05 04:58 | -42.92417 | 147.63388 | 2291 ft | 176 kts | 297° |
| 2026-05-05 04:58 | -42.91662 | 147.62069 | 2043 ft | 175 kts | 310° |
| 2026-05-05 04:59 | -42.90835 | 147.60990 | 1812 ft | 155 kts | 310° |
| 2026-05-05 04:59 | -42.90085 | 147.59985 | 1596 ft | 149 kts | 309° |
| 2026-05-05 04:59 | -42.89371 | 147.59011 | 1409 ft | 143 kts | 309° |
| 2026-05-05 04:59 | -42.88681 | 147.58067 | 1140 ft | 139 kts | 310° |
| 2026-05-05 05:00 | -42.87999 | 147.57138 | 976 ft | 136 kts | 311° |
| 2026-05-05 05:00 | -42.87343 | 147.56243 | 781 ft | 131 kts | 311° |
| 2026-05-05 05:00 | -42.86705 | 147.55375 | 604 ft | 128 kts | 311° |
| 2026-05-05 05:00 | -42.86074 | 147.54516 | 442 ft | 128 kts | 312° |
| 2026-05-05 05:01 | -42.85418 | 147.53624 | 334 ft | 133 kts | 312° |
| 2026-05-05 05:01 | -42.84760 | 147.52726 | 114 ft | 132 kts | 312° |
| 2026-05-05 05:01 | -42.84129 | 147.51878 | 25 ft | 117 kts | 312° |
| 2026-05-05 05:01 | -42.83714 | 147.51313 | 24 ft | 48 kts | 315° |
| 2026-05-05 05:02 | -42.83504 | 147.51029 | 25 ft | 38 kts | 315° |
| 2026-05-05 05:02 | -42.83345 | 147.50810 | 19 ft | 27 kts | 311° |
| 2026-05-05 05:02 | -42.83329 | 147.50641 | 18 ft | 10 kts | 237° |
| 2026-05-05 05:02 | -42.83379 | 147.50574 | 21 ft | 10 kts | 213° |
| 2026-05-05 05:03 | -42.83441 | 147.50571 | 21 ft | 10 kts | 136° |
| 2026-05-05 05:03 | -42.83488 | 147.50639 | 24 ft | 10 kts | 134° |
| 2026-05-05 05:03 | -42.83545 | 147.50697 | 26 ft | 10 kts | 179° |
| 2026-05-05 05:03 | -42.83618 | 147.50659 | 21 ft | 12 kts | 176° |
| 2026-05-05 05:04 | -42.83652 | 147.50661 | 24 ft | 3 kts | 212° |
| 2026-05-05 05:04 | -42.83674 | 147.50639 | 21 ft | 4 kts | 224° |
| 2026-05-05 05:04 | -42.83682 | 147.50627 | 22 ft | 1 kts | 225° |
| 2026-05-05 05:04 | -42.83683 | 147.50626 | 22 ft | 0 kts | 225° |